createdAt,value
2022-11-06T00:00:30.823Z,6.8
2022-11-06T00:01:30.957Z,6.8
2022-11-06T00:02:31.017Z,6.7
2022-11-06T00:03:30.979Z,6.7
2022-11-06T00:04:31.034Z,6.8
2022-11-06T00:05:31.129Z,6.8
2022-11-06T00:06:31.201Z,6.8
2022-11-06T00:07:31.235Z,6.7
2022-11-06T00:08:31.262Z,6.7
2022-11-06T00:09:31.339Z,6.7
2022-11-06T00:10:31.413Z,6.7
2022-11-06T00:11:31.439Z,6.7
2022-11-06T00:12:31.525Z,6.6
2022-11-06T00:13:31.571Z,6.7
2022-11-06T00:14:31.596Z,6.8
2022-11-06T00:15:31.704Z,6.7
2022-11-06T00:16:31.729Z,6.7
2022-11-06T00:17:31.803Z,6.6
2022-11-06T00:18:31.903Z,6.6
2022-11-06T00:19:31.939Z,6.6
2022-11-06T00:20:31.985Z,6.6
2022-11-06T00:21:32.017Z,6.6
2022-11-06T00:22:32.087Z,6.6
2022-11-06T00:23:32.129Z,6.6
2022-11-06T00:24:32.177Z,6.6
2022-11-06T00:25:32.227Z,6.6
2022-11-06T00:26:32.303Z,6.6
2022-11-06T00:27:32.391Z,6.6
2022-11-06T00:28:32.393Z,6.5
2022-11-06T00:29:32.464Z,6.5
2022-11-06T00:30:37.569Z,6.5
2022-11-06T00:31:32.642Z,6.5
2022-11-06T00:32:32.680Z,6.5
2022-11-06T00:33:32.721Z,6.6
2022-11-06T00:34:32.744Z,6.6
2022-11-06T00:35:32.810Z,6.5
2022-11-06T00:36:32.871Z,6.5
2022-11-06T00:37:32.928Z,6.5
2022-11-06T00:38:32.977Z,6.6
2022-11-06T00:39:33.046Z,6.6
2022-11-06T00:40:33.115Z,6.6
2022-11-06T00:41:33.148Z,6.6
2022-11-06T00:42:33.213Z,6.6
2022-11-06T00:43:33.270Z,6.6
2022-11-06T00:44:33.318Z,6.6
2022-11-06T00:45:33.368Z,6.6
2022-11-06T00:46:33.458Z,6.5
2022-11-06T00:47:33.488Z,6.5
2022-11-06T00:48:33.516Z,6.6
2022-11-06T00:49:33.588Z,6.6
2022-11-06T00:50:33.629Z,6.7
2022-11-06T00:51:33.699Z,6.7
2022-11-06T00:52:33.756Z,6.6
2022-11-06T00:53:33.821Z,6.6
2022-11-06T00:54:33.883Z,6.6
2022-11-06T00:55:34.072Z,6.5
2022-11-06T00:56:33.996Z,6.6
2022-11-06T00:57:34.052Z,6.6
2022-11-06T00:58:34.065Z,6.7
2022-11-06T00:59:34.119Z,6.8
2022-11-06T01:00:34.261Z,6.8
2022-11-06T01:01:34.442Z,6.7
2022-11-06T01:02:34.489Z,6.6
2022-11-06T01:03:34.410Z,6.7
2022-11-06T01:04:34.474Z,6.6
2022-11-06T01:05:34.503Z,6.6
2022-11-06T01:06:34.605Z,6.6
2022-11-06T01:07:34.728Z,6.6
2022-11-06T01:08:34.764Z,6.7
2022-11-06T01:09:34.804Z,6.6
2022-11-06T01:10:34.883Z,6.7
2022-11-06T01:11:52.802Z,6.7
2022-11-06T01:12:34.995Z,6.6
2022-11-06T01:13:35.268Z,6.8
2022-11-06T01:14:35.090Z,6.8
2022-11-06T01:15:35.109Z,6.8
2022-11-06T01:16:35.163Z,6.8
2022-11-06T01:17:35.252Z,6.7
2022-11-06T01:18:35.385Z,6.7
2022-11-06T01:19:35.387Z,6.7
2022-11-06T01:20:35.428Z,6.7
2022-11-06T01:21:35.503Z,6.6
2022-11-06T01:22:35.554Z,6.7
2022-11-06T01:23:35.616Z,6.6
2022-11-06T01:24:35.720Z,6.6
2022-11-06T01:25:35.718Z,6.6
2022-11-06T01:26:38.525Z,6.6
2022-11-06T01:27:35.801Z,6.6
2022-11-06T01:28:35.865Z,6.7
2022-11-06T01:29:35.969Z,6.7
2022-11-06T01:30:35.981Z,6.6
2022-11-06T01:31:36.047Z,6.7
2022-11-06T01:32:36.121Z,6.7
2022-11-06T01:33:36.158Z,6.7
2022-11-06T01:34:36.239Z,6.7
2022-11-06T01:35:36.292Z,6.8
2022-11-06T01:36:36.348Z,6.8
2022-11-06T01:37:36.407Z,6.7
2022-11-06T01:38:36.464Z,6.6
2022-11-06T01:39:41.529Z,6.4
2022-11-06T01:40:36.622Z,6.5
2022-11-06T01:41:36.651Z,6.5
2022-11-06T01:42:36.705Z,6.6
2022-11-06T01:43:36.738Z,6.7
2022-11-06T01:44:36.779Z,6.7
2022-11-06T01:45:36.828Z,6.6
2022-11-06T01:46:36.915Z,6.6
2022-11-06T01:47:37.025Z,6.5
2022-11-06T01:48:37.102Z,6.6
2022-11-06T01:49:37.162Z,6.6
2022-11-06T01:50:37.385Z,6.7
2022-11-06T01:51:37.278Z,6.7
2022-11-06T01:52:37.363Z,6.7
2022-11-06T01:53:37.384Z,6.6
2022-11-06T01:54:37.488Z,6.6
2022-11-06T01:55:37.536Z,6.5
2022-11-06T01:56:37.577Z,6.6
2022-11-06T01:57:37.642Z,6.7
2022-11-06T01:58:37.680Z,6.7
2022-11-06T01:59:37.746Z,6.5
2022-11-06T02:00:37.768Z,6.5
2022-11-06T02:01:37.898Z,6.5
2022-11-06T02:02:38.051Z,6.5
2022-11-06T02:03:37.975Z,6.6
2022-11-06T02:04:38.078Z,6.5
2022-11-06T02:05:38.350Z,6.5
2022-11-06T02:06:38.321Z,6.3
2022-11-06T02:07:38.270Z,6.4
2022-11-06T02:08:38.321Z,6.4
2022-11-06T02:09:38.404Z,6.4
2022-11-06T02:10:38.431Z,6.3
2022-11-06T02:11:38.445Z,6.4
2022-11-06T02:12:38.539Z,6.4
2022-11-06T02:13:38.578Z,6.4
2022-11-06T02:14:38.631Z,6.3
2022-11-06T02:15:38.749Z,6.3
2022-11-06T02:16:38.754Z,6.3
2022-11-06T02:17:39.338Z,6.3
2022-11-06T02:18:39.129Z,6.3
2022-11-06T02:19:38.923Z,6.3
2022-11-06T02:20:38.984Z,6.3
2022-11-06T02:21:39.040Z,6.3
2022-11-06T02:22:39.246Z,6.4
2022-11-06T02:23:39.184Z,6.4
2022-11-06T02:24:39.220Z,6.4
2022-11-06T02:25:39.283Z,6.4
2022-11-06T02:26:39.364Z,6.4
2022-11-06T02:27:39.407Z,6.4
2022-11-06T02:28:39.414Z,6.4
2022-11-06T02:29:39.487Z,6.4
2022-11-06T02:30:39.557Z,6.5
2022-11-06T02:31:39.632Z,6.5
2022-11-06T02:32:39.642Z,6.4
2022-11-06T02:33:39.764Z,6.4
2022-11-06T02:34:42.232Z,6.4
2022-11-06T02:35:39.808Z,6.5
2022-11-06T02:36:39.847Z,6.5
2022-11-06T02:37:39.930Z,6.5
2022-11-06T02:38:40.073Z,6.5
2022-11-06T02:39:39.993Z,6.4
2022-11-06T02:40:40.329Z,6.3
2022-11-06T02:41:40.362Z,6.3
2022-11-06T02:42:40.183Z,6.3
2022-11-06T02:43:40.175Z,6.3
2022-11-06T02:44:40.235Z,6.3
2022-11-06T02:45:40.319Z,6.3
2022-11-06T02:46:40.370Z,6.4
2022-11-06T02:47:40.460Z,6.4
2022-11-06T02:48:41.767Z,6.4
2022-11-06T02:49:40.561Z,6.5
2022-11-06T02:50:40.642Z,6.5
2022-11-06T02:51:40.685Z,6.4
2022-11-06T02:52:40.693Z,6.3
2022-11-06T02:53:40.761Z,6.3
2022-11-06T02:54:40.807Z,6.1
2022-11-06T02:55:40.885Z,6.1
2022-11-06T02:56:40.869Z,6.1
2022-11-06T02:57:41.002Z,6.2
2022-11-06T02:58:44.798Z,6.3
2022-11-06T02:59:41.378Z,6.3
2022-11-06T03:00:41.123Z,6.3
2022-11-06T03:01:41.331Z,6.3
2022-11-06T03:02:41.426Z,6.3
2022-11-06T03:03:41.384Z,6.2
2022-11-06T03:04:41.461Z,6.2
2022-11-06T03:05:41.496Z,6.3
2022-11-06T03:06:41.786Z,6.3
2022-11-06T03:07:41.631Z,6.2
2022-11-06T03:08:41.654Z,6.2
2022-11-06T03:09:41.707Z,6.1
2022-11-06T03:10:42.234Z,6.1
2022-11-06T03:11:42.423Z,6.2
2022-11-06T03:12:41.906Z,6.1
2022-11-06T03:13:41.930Z,6.2
2022-11-06T03:14:41.994Z,6.2
2022-11-06T03:15:42.046Z,6.1
2022-11-06T03:16:42.126Z,6.2
2022-11-06T03:17:42.145Z,6.2
2022-11-06T03:18:42.232Z,6.2
2022-11-06T03:19:42.296Z,6.3
2022-11-06T03:20:42.334Z,6.3
2022-11-06T03:21:42.412Z,6.3
2022-11-06T03:22:42.499Z,6.2
2022-11-06T03:23:42.544Z,6.2
2022-11-06T03:24:42.581Z,6.2
2022-11-06T03:25:42.641Z,6.3
2022-11-06T03:26:42.791Z,6.3
2022-11-06T03:27:42.905Z,6.3
2022-11-06T03:28:42.783Z,6.3
2022-11-06T03:29:42.821Z,6.3
2022-11-06T03:30:42.930Z,6.4
2022-11-06T03:31:48.477Z,6.4
2022-11-06T03:32:43.306Z,6.4
2022-11-06T03:33:43.662Z,6.4
2022-11-06T03:34:43.414Z,6.3
2022-11-06T03:35:57.775Z,6.4
2022-11-06T03:37:25.912Z,6.3
2022-11-06T03:39:55.493Z,6.3
2022-11-06T03:39:55.732Z,6.3
2022-11-06T03:40:43.567Z,6.3
2022-11-06T03:41:43.711Z,6.3
2022-11-06T03:42:44.275Z,6.3
2022-11-06T03:43:43.744Z,6.3
2022-11-06T03:44:44.887Z,6.3
2022-11-06T03:46:22.588Z,6.3
2022-11-06T03:46:43.875Z,6.3
2022-11-06T03:47:43.935Z,6.3
2022-11-06T03:48:44.031Z,6.3
2022-11-06T03:49:44.316Z,6.3
2022-11-06T03:50:44.397Z,6.4
2022-11-06T03:51:44.220Z,6.4
2022-11-06T03:52:49.237Z,6.5
2022-11-06T03:53:44.344Z,6.5
2022-11-06T03:54:44.353Z,6.5
2022-11-06T03:55:45.091Z,6.5
2022-11-06T03:56:44.511Z,6.5
2022-11-06T03:57:44.595Z,6.6
2022-11-06T03:58:44.677Z,6.5
2022-11-06T03:59:44.640Z,6.6
2022-11-06T04:00:50.159Z,6.6
2022-11-06T04:01:44.856Z,6.6
2022-11-06T04:02:44.933Z,6.6
2022-11-06T04:03:44.854Z,6.6
2022-11-06T04:04:45.002Z,6.6
2022-11-06T04:05:45.002Z,6.6
2022-11-06T04:06:45.031Z,6.6
2022-11-06T04:07:45.158Z,6.6
2022-11-06T04:08:45.128Z,6.5
2022-11-06T04:09:45.194Z,6.4
2022-11-06T04:10:45.255Z,6.4
2022-11-06T04:11:45.277Z,6.5
2022-11-06T04:12:45.333Z,6.4
2022-11-06T04:13:45.459Z,6.4
2022-11-06T04:14:45.479Z,6.4
2022-11-06T04:15:45.521Z,6.3
2022-11-06T04:16:45.594Z,6.3
2022-11-06T04:17:45.642Z,6.4
2022-11-06T04:18:45.717Z,6.4
2022-11-06T04:19:45.830Z,6.4
2022-11-06T04:20:45.837Z,6.4
2022-11-06T04:21:45.914Z,6.4
2022-11-06T04:22:45.961Z,6.4
2022-11-06T04:23:46.032Z,6.3
2022-11-06T04:24:46.096Z,6.3
2022-11-06T04:25:46.172Z,6.3
2022-11-06T04:26:46.229Z,6.3
2022-11-06T04:27:46.348Z,6.3
2022-11-06T04:28:46.339Z,6.3
2022-11-06T04:29:46.364Z,6.3
2022-11-06T04:31:31.637Z,6.2
2022-11-06T04:32:13.908Z,6.3
2022-11-06T04:32:46.690Z,6.4
2022-11-06T04:33:46.610Z,6.4
2022-11-06T04:34:46.630Z,6.4
2022-11-06T04:35:46.714Z,6.3
2022-11-06T04:36:46.766Z,6.3
2022-11-06T04:37:46.844Z,6.3
2022-11-06T04:38:46.882Z,6.2
2022-11-06T04:39:46.923Z,6.1
2022-11-06T04:40:46.956Z,6.3
2022-11-06T04:41:47.042Z,6.3
2022-11-06T04:42:47.067Z,6.3
2022-11-06T04:43:47.136Z,6.3
2022-11-06T04:44:47.187Z,6.3
2022-11-06T04:45:47.257Z,6.3
2022-11-06T04:47:06.112Z,6.3
2022-11-06T04:48:32.208Z,6.3
2022-11-06T04:48:47.731Z,6.3
2022-11-06T04:49:48.015Z,6.3
2022-11-06T04:50:47.526Z,6.2
2022-11-06T04:51:49.224Z,6.2
2022-11-06T04:53:48.432Z,6.3
2022-11-06T04:54:00.162Z,6.2
2022-11-06T04:55:04.040Z,6.3
2022-11-06T04:55:47.869Z,6.3
2022-11-06T04:57:56.055Z,6.3
2022-11-06T04:58:14.631Z,6.4
2022-11-06T04:58:14.773Z,6.4
2022-11-06T04:58:48.173Z,6.4
2022-11-06T04:59:48.132Z,6.3
2022-11-06T05:00:51.493Z,6.3
2022-11-06T05:01:48.477Z,6.3
2022-11-06T05:03:28.108Z,6.3
2022-11-06T05:04:09.890Z,6.2
2022-11-06T05:04:48.425Z,6.2
2022-11-06T05:05:48.553Z,6.1
2022-11-06T05:06:48.562Z,6.1
2022-11-06T05:07:53.971Z,6.1
2022-11-06T05:09:12.043Z,6.1
2022-11-06T05:09:49.452Z,6.2
2022-11-06T05:09:49.490Z,6.1
2022-11-06T05:10:48.974Z,6.2
2022-11-06T05:12:11.929Z,6.1
2022-11-06T05:12:49.029Z,6.2
2022-11-06T05:13:49.033Z,6.2
2022-11-06T05:14:49.090Z,6.2
2022-11-06T05:16:04.164Z,6.2
2022-11-06T05:16:49.189Z,6.2
2022-11-06T05:17:49.229Z,6.3
2022-11-06T05:18:49.383Z,6.3
2022-11-06T05:19:49.335Z,6.3
2022-11-06T05:20:49.349Z,6.1
2022-11-06T05:21:49.529Z,6.2
2022-11-06T05:22:49.488Z,6.3
2022-11-06T05:23:49.548Z,6.2
2022-11-06T05:24:49.631Z,6.2
2022-11-06T05:25:49.675Z,6.3
2022-11-06T05:26:52.296Z,6.3
2022-11-06T05:27:49.804Z,6.3
2022-11-06T05:28:49.810Z,6.4
2022-11-06T05:29:49.871Z,6.4
2022-11-06T05:30:49.991Z,6.4
2022-11-06T05:31:50.002Z,6.3
2022-11-06T05:32:50.080Z,6.3
2022-11-06T05:33:50.668Z,6.3
2022-11-06T05:34:50.200Z,6.2
2022-11-06T05:35:50.276Z,6.3
2022-11-06T05:36:50.371Z,6.3
2022-11-06T05:37:50.666Z,6.3
2022-11-06T05:38:50.475Z,6.3
2022-11-06T05:39:51.006Z,6.3
2022-11-06T05:40:50.650Z,6.3
2022-11-06T05:41:50.938Z,6.3
2022-11-06T05:42:50.654Z,6.3
2022-11-06T05:43:50.744Z,6.2
2022-11-06T05:44:50.825Z,6.3
2022-11-06T05:45:50.856Z,6.3
2022-11-06T05:46:51.143Z,6.3
2022-11-06T05:47:51.475Z,6.3
2022-11-06T05:48:51.019Z,6.3
2022-11-06T05:49:51.178Z,6.3
2022-11-06T05:50:51.500Z,6.3
2022-11-06T05:51:51.277Z,6.4
2022-11-06T05:52:51.796Z,6.4
2022-11-06T05:53:51.353Z,6.4
2022-11-06T05:54:51.695Z,6.3
2022-11-06T05:55:51.760Z,6.4
2022-11-06T05:56:51.520Z,6.4
2022-11-06T05:57:51.553Z,6.4
2022-11-06T05:58:51.688Z,6.4
2022-11-06T05:59:51.690Z,6.4
2022-11-06T06:00:51.825Z,6.3
2022-11-06T06:01:51.979Z,6.3
2022-11-06T06:02:51.885Z,6.4
2022-11-06T06:03:51.917Z,6.3
2022-11-06T06:04:51.961Z,6.3
2022-11-06T06:05:52.004Z,6.3
2022-11-06T06:06:52.938Z,6.3
2022-11-06T06:07:52.122Z,6.3
2022-11-06T06:08:52.213Z,6.3
2022-11-06T06:09:52.248Z,6.3
2022-11-06T06:10:52.297Z,6.3
2022-11-06T06:11:52.340Z,6.4
2022-11-06T06:12:52.402Z,6.3
2022-11-06T06:13:52.509Z,6.3
2022-11-06T06:14:52.627Z,6.3
2022-11-06T06:15:52.687Z,6.4
2022-11-06T06:16:52.777Z,6.4
2022-11-06T06:17:52.825Z,6.4
2022-11-06T06:18:57.816Z,6.4
2022-11-06T06:19:52.929Z,6.4
2022-11-06T06:20:52.989Z,6.4
2022-11-06T06:21:53.058Z,6.4
2022-11-06T06:22:53.114Z,6.3
2022-11-06T06:23:53.175Z,6.3
2022-11-06T06:24:53.569Z,6.3
2022-11-06T06:25:53.563Z,6.3
2022-11-06T06:26:54.624Z,6.4
2022-11-06T06:27:53.568Z,6.4
2022-11-06T06:28:59.682Z,6.5
2022-11-06T06:29:54.061Z,6.5
2022-11-06T06:31:01.628Z,6.4
2022-11-06T06:31:58.653Z,6.4
2022-11-06T06:32:53.958Z,6.4
2022-11-06T06:33:59.008Z,6.4
2022-11-06T06:34:54.401Z,6.4
2022-11-06T06:35:53.988Z,6.4
2022-11-06T06:36:54.125Z,6.4
2022-11-06T06:37:58.956Z,6.3
2022-11-06T06:38:54.138Z,6.3
2022-11-06T06:39:54.132Z,6.3
2022-11-06T06:40:59.072Z,6.4
2022-11-06T06:41:54.188Z,6.4
2022-11-06T06:42:54.237Z,6.4
2022-11-06T06:43:54.321Z,6.4
2022-11-06T06:44:59.399Z,6.4
2022-11-06T06:45:59.441Z,6.5
2022-11-06T06:46:59.482Z,6.5
2022-11-06T06:47:59.547Z,6.5
2022-11-06T06:48:54.637Z,6.6
2022-11-06T06:49:54.632Z,6.6
2022-11-06T06:50:54.727Z,6.6
2022-11-06T06:51:54.805Z,6.6
2022-11-06T06:52:54.824Z,6.6
2022-11-06T06:53:54.970Z,6.6
2022-11-06T06:54:55.041Z,6.6
2022-11-06T06:55:55.109Z,6.7
2022-11-06T06:57:01.869Z,6.8
2022-11-06T06:57:55.217Z,6.8
2022-11-06T06:58:55.232Z,6.8
2022-11-06T06:59:55.312Z,6.8
2022-11-06T07:00:55.383Z,6.8
2022-11-06T07:01:55.503Z,6.9
2022-11-06T07:02:55.463Z,6.9
2022-11-06T07:04:04.107Z,6.9
2022-11-06T07:04:55.553Z,7
2022-11-06T07:05:55.625Z,7
2022-11-06T07:06:55.949Z,7.1
2022-11-06T07:07:55.794Z,7.1
2022-11-06T07:08:55.762Z,7.1
2022-11-06T07:09:55.815Z,7.2
2022-11-06T07:10:55.899Z,7.2
2022-11-06T07:12:00.950Z,7.2
2022-11-06T07:12:56.038Z,7.2
2022-11-06T07:13:56.309Z,7.2
2022-11-06T07:15:33.500Z,7.3
2022-11-06T07:16:19.819Z,7.4
2022-11-06T07:16:56.249Z,7.3
2022-11-06T07:17:56.288Z,7.4
2022-11-06T07:18:56.302Z,7.5
2022-11-06T07:19:56.518Z,7.5
2022-11-06T07:20:56.462Z,7.4
2022-11-06T07:21:56.461Z,7.5
2022-11-06T07:22:56.581Z,7.5
2022-11-06T07:23:56.581Z,7.5
2022-11-06T07:24:57.834Z,7.5
2022-11-06T07:25:56.690Z,7.4
2022-11-06T07:26:56.727Z,7.5
2022-11-06T07:28:00.390Z,7.6
2022-11-06T07:28:56.872Z,7.7
2022-11-06T07:29:56.948Z,7.7
2022-11-06T07:30:57.030Z,7.7
2022-11-06T07:31:57.025Z,7.7
2022-11-06T07:32:57.114Z,7.7
2022-11-06T07:33:57.199Z,7.7
2022-11-06T07:34:57.224Z,7.7
2022-11-06T07:35:57.276Z,7.8
2022-11-06T07:36:57.383Z,7.9
2022-11-06T07:37:57.379Z,7.9
2022-11-06T07:39:02.428Z,8
2022-11-06T07:39:57.482Z,8
2022-11-06T07:40:57.534Z,8
2022-11-06T07:41:57.629Z,8
2022-11-06T07:42:58.218Z,7.9
2022-11-06T07:43:57.653Z,7.9
2022-11-06T07:44:57.701Z,8
2022-11-06T07:45:58.945Z,8.1
2022-11-06T07:47:02.896Z,8.1
2022-11-06T07:47:59.262Z,8.2
2022-11-06T07:48:58.013Z,8.3
2022-11-06T07:49:57.998Z,8.4
2022-11-06T07:50:58.158Z,8.3
2022-11-06T07:52:03.384Z,8.3
2022-11-06T07:52:59.254Z,8.4
2022-11-06T07:53:58.860Z,8.3
2022-11-06T07:54:58.906Z,8.4
2022-11-06T07:55:58.313Z,8.4
2022-11-06T07:56:58.586Z,8.3
2022-11-06T07:57:58.455Z,8.4
2022-11-06T07:58:58.477Z,8.3
2022-11-06T07:59:59.582Z,8.4
2022-11-06T08:01:51.750Z,8.4
2022-11-06T08:02:04.068Z,8.5
2022-11-06T08:02:58.730Z,8.4
2022-11-06T08:04:01.210Z,8.4
2022-11-06T08:04:58.819Z,8.3
2022-11-06T08:05:58.886Z,8.4
2022-11-06T08:06:59.012Z,8.5
2022-11-06T08:07:59.035Z,8.4
2022-11-06T08:08:59.340Z,8.4
2022-11-06T08:09:59.132Z,8.5
2022-11-06T08:11:04.219Z,8.5
2022-11-06T08:11:59.241Z,8.6
2022-11-06T08:13:01.698Z,8.5
2022-11-06T08:13:59.332Z,8.6
2022-11-06T08:14:59.546Z,8.5
2022-11-06T08:16:17.850Z,8.6
2022-11-06T08:17:00.892Z,8.8
2022-11-06T08:17:59.601Z,8.8
2022-11-06T08:19:02.092Z,8.8
2022-11-06T08:20:00.790Z,8.7
2022-11-06T08:20:59.837Z,8.8
2022-11-06T08:22:00.076Z,8.8
2022-11-06T08:23:00.572Z,8.8
2022-11-06T08:24:04.906Z,8.9
2022-11-06T08:25:04.949Z,8.9
2022-11-06T08:26:00.002Z,8.8
2022-11-06T08:27:05.052Z,8.8
2022-11-06T08:28:00.184Z,8.7
2022-11-06T08:29:02.595Z,8.6
2022-11-06T08:30:05.251Z,8.8
2022-11-06T08:31:01.710Z,8.8
2022-11-06T08:32:00.347Z,8.8
2022-11-06T08:33:02.253Z,8.8
2022-11-06T08:34:03.447Z,8.8
2022-11-06T08:35:01.166Z,8.9
2022-11-06T08:36:00.581Z,8.8
2022-11-06T08:37:00.634Z,8.8
2022-11-06T08:38:00.744Z,8.9
2022-11-06T08:39:01.068Z,9
2022-11-06T08:40:11.769Z,9
2022-11-06T08:41:06.750Z,9
2022-11-06T08:42:08.804Z,9
2022-11-06T08:43:05.314Z,9.1
2022-11-06T08:44:01.350Z,9
2022-11-06T08:45:01.208Z,9
2022-11-06T08:46:02.806Z,8.9
2022-11-06T08:47:02.638Z,9
2022-11-06T08:48:01.442Z,9.2
2022-11-06T08:49:02.512Z,9.2
2022-11-06T08:50:01.995Z,9.3
2022-11-06T08:51:03.967Z,9.2
2022-11-06T08:52:01.513Z,9.2
2022-11-06T08:53:01.732Z,9.2
2022-11-06T08:54:01.888Z,9.3
2022-11-06T08:55:01.711Z,9.3
2022-11-06T08:56:01.767Z,9.3
2022-11-06T08:57:01.820Z,9.5
2022-11-06T08:58:01.876Z,9.4
2022-11-06T08:59:02.002Z,9.4
2022-11-06T09:00:01.984Z,9.5
2022-11-06T09:01:04.275Z,9.5
2022-11-06T09:02:02.197Z,9.5
2022-11-06T09:03:02.116Z,9.6
2022-11-06T09:04:05.941Z,9.6
2022-11-06T09:05:07.702Z,9.8
2022-11-06T09:06:02.359Z,9.8
2022-11-06T09:07:04.383Z,9.8
2022-11-06T09:08:07.424Z,9.7
2022-11-06T09:09:02.473Z,9.7
2022-11-06T09:10:02.912Z,9.8
2022-11-06T09:11:02.570Z,9.9
2022-11-06T09:12:02.656Z,9.7
2022-11-06T09:13:02.690Z,9.8
2022-11-06T09:14:02.758Z,10
2022-11-06T09:15:02.836Z,10.2
2022-11-06T09:16:02.852Z,10.3
2022-11-06T09:17:02.908Z,10.3
2022-11-06T09:18:02.939Z,10.2
2022-11-06T09:19:04.198Z,10.3
2022-11-06T09:20:03.074Z,10.5
2022-11-06T09:21:06.102Z,10.6
2022-11-06T09:22:03.279Z,10.4
2022-11-06T09:23:03.291Z,10.3
2022-11-06T09:24:04.549Z,10.3
2022-11-06T09:25:04.482Z,10.3
2022-11-06T09:26:03.435Z,10.3
2022-11-06T09:27:03.480Z,10.4
2022-11-06T09:28:03.568Z,10.7
2022-11-06T09:29:03.624Z,11
2022-11-06T09:30:03.670Z,11
2022-11-06T09:31:07.420Z,11
2022-11-06T09:32:07.903Z,11.1
2022-11-06T09:33:04.724Z,11.1
2022-11-06T09:34:03.938Z,11
2022-11-06T09:35:04.018Z,11.1
2022-11-06T09:36:04.017Z,11.1
2022-11-06T09:37:05.780Z,11.4
2022-11-06T09:38:04.146Z,11.8
2022-11-06T09:39:04.189Z,11.6
2022-11-06T09:40:06.468Z,11.9
2022-11-06T09:41:13.456Z,12.5
2022-11-06T09:42:07.295Z,12.1
2022-11-06T09:43:04.348Z,12
2022-11-06T09:44:05.809Z,12.2
2022-11-06T09:45:04.476Z,12.5
2022-11-06T09:46:04.493Z,12
2022-11-06T09:47:04.864Z,11.4
2022-11-06T09:48:04.658Z,11.1
2022-11-06T09:49:07.698Z,11
2022-11-06T09:50:04.787Z,11
2022-11-06T09:51:04.809Z,10.9
2022-11-06T09:52:04.883Z,10.7
2022-11-06T09:53:06.029Z,10.6
2022-11-06T09:54:04.981Z,10.4
2022-11-06T09:55:05.111Z,10.2
2022-11-06T09:56:05.071Z,10.2
2022-11-06T09:57:05.159Z,10.2
2022-11-06T09:58:05.275Z,10
2022-11-06T09:59:05.255Z,9.9
2022-11-06T10:00:05.298Z,9.8
2022-11-06T10:01:05.352Z,9.7
2022-11-06T10:02:05.487Z,9.8
2022-11-06T10:03:05.430Z,10
2022-11-06T10:04:05.529Z,10.3
2022-11-06T10:05:05.589Z,10.4
2022-11-06T10:06:05.593Z,10.5
2022-11-06T10:07:05.710Z,10.6
2022-11-06T10:08:10.863Z,10.7
2022-11-06T10:09:06.150Z,10.9
2022-11-06T10:10:05.925Z,11.2
2022-11-06T10:11:05.948Z,11.1
2022-11-06T10:12:06.001Z,11.2
2022-11-06T10:13:06.908Z,10.8
2022-11-06T10:14:06.071Z,10.6
2022-11-06T10:15:06.122Z,10.7
2022-11-06T10:16:06.213Z,10.5
2022-11-06T10:17:06.200Z,10.5
2022-11-06T10:18:06.315Z,10.9
2022-11-06T10:19:06.335Z,11.2
2022-11-06T10:20:06.464Z,11.5
2022-11-06T10:21:06.440Z,11.8
2022-11-06T10:22:06.497Z,12.1
2022-11-06T10:23:06.510Z,12.1
2022-11-06T10:24:06.593Z,12
2022-11-06T10:25:06.619Z,11.5
2022-11-06T10:26:06.676Z,11.3
2022-11-06T10:27:06.744Z,11.6
2022-11-06T10:28:06.792Z,11.9
2022-11-06T10:29:07.967Z,12.2
2022-11-06T10:30:06.931Z,12.1
2022-11-06T10:31:11.982Z,12
2022-11-06T10:32:07.037Z,12.1
2022-11-06T10:33:07.206Z,12
2022-11-06T10:34:07.186Z,11.8
2022-11-06T10:35:12.191Z,11.8
2022-11-06T10:36:07.199Z,11.7
2022-11-06T10:37:12.292Z,11.5
2022-11-06T10:38:07.593Z,11.2
2022-11-06T10:49:09.090Z,10.4
2022-11-06T10:49:09.764Z,10.3
2022-11-06T10:50:08.005Z,10.4
2022-11-06T10:51:16.580Z,10.3
2022-11-06T10:52:08.108Z,10.2
2022-11-06T10:53:08.168Z,10.2
2022-11-06T10:54:08.259Z,10.2
2022-11-06T10:55:08.328Z,10.3
2022-11-06T10:56:11.117Z,10.3
2022-11-06T10:57:08.426Z,10.3
2022-11-06T10:58:08.426Z,10.3
2022-11-06T10:59:08.549Z,10.2
2022-11-06T11:00:08.568Z,10.2
2022-11-06T11:01:08.565Z,10.2
2022-11-06T11:02:08.777Z,10.1
2022-11-06T11:03:08.711Z,10.1
2022-11-06T11:04:08.809Z,10.1
2022-11-06T11:05:08.843Z,10.1
2022-11-06T11:06:08.915Z,10.1
2022-11-06T11:07:09.198Z,10.1
2022-11-06T11:08:09.162Z,10.1
2022-11-06T11:09:09.395Z,10.1
2022-11-06T11:10:09.217Z,10.1
2022-11-06T11:11:09.156Z,10.1
2022-11-06T11:12:09.384Z,10.1
2022-11-06T11:13:09.335Z,10.1
2022-11-06T11:14:09.331Z,10.2
2022-11-06T11:15:29.694Z,10.2
2022-11-06T11:16:26.189Z,10.2
2022-11-06T11:17:12.965Z,10.2
2022-11-06T11:18:14.705Z,10.1
2022-11-06T11:19:20.487Z,10.1
2022-11-06T11:20:09.656Z,10.1
2022-11-06T11:21:29.798Z,10.1
2022-11-06T11:22:11.758Z,10.1
2022-11-06T11:23:25.667Z,10
2022-11-06T11:24:09.935Z,10.1
2022-11-06T11:25:49.979Z,10.1
2022-11-06T11:26:10.338Z,10.2
2022-11-06T11:27:15.164Z,10.1
2022-11-06T11:28:29.153Z,10.1
2022-11-06T11:29:21.420Z,10.1
2022-11-06T11:30:10.241Z,10.1
2022-11-06T11:31:34.082Z,10
2022-11-06T11:32:10.372Z,10.1
2022-11-06T11:33:26.821Z,10.1
2022-11-06T11:34:35.614Z,10.2
2022-11-06T11:35:23.840Z,10.2
2022-11-06T11:36:10.641Z,10.2
2022-11-06T11:37:20.163Z,10.2
2022-11-06T11:38:10.876Z,10.2
2022-11-06T11:39:32.059Z,10.2
2022-11-06T11:40:33.685Z,10.3
2022-11-06T11:41:14.326Z,10.3
2022-11-06T11:42:10.901Z,10.3
2022-11-06T11:43:27.311Z,10.3
2022-11-06T11:44:11.008Z,10.2
2022-11-06T11:45:11.097Z,10.2
2022-11-06T11:46:28.233Z,10.2
2022-11-06T11:47:11.225Z,10.3
2022-11-06T11:48:11.591Z,10.2
2022-11-06T11:49:32.966Z,10.2
2022-11-06T11:50:11.378Z,10.2
2022-11-06T11:51:11.410Z,10.2
2022-11-06T11:52:30.401Z,10.3
2022-11-06T11:53:11.507Z,10.3
2022-11-06T11:54:56.492Z,10.4
2022-11-06T11:55:11.636Z,10.3
2022-11-06T11:56:11.683Z,10.4
2022-11-06T11:57:11.799Z,10.4
2022-11-06T11:58:11.977Z,10.5
2022-11-06T11:59:11.878Z,10.5
2022-11-06T12:00:11.922Z,10.5
2022-11-06T12:01:11.999Z,10.6
2022-11-06T12:02:12.095Z,10.7
2022-11-06T12:03:12.194Z,10.7
2022-11-06T12:04:12.155Z,10.9
2022-11-06T12:05:12.244Z,11
2022-11-06T12:06:12.273Z,11.1
2022-11-06T12:07:12.334Z,11.3
2022-11-06T12:08:12.545Z,11.5
2022-11-06T12:09:17.443Z,11.7
2022-11-06T12:10:12.506Z,11.8
2022-11-06T12:11:12.550Z,11.5
2022-11-06T12:12:12.557Z,11.5
2022-11-06T12:13:12.635Z,11.5
2022-11-06T12:14:12.703Z,11.7
2022-11-06T12:15:12.769Z,11.8
2022-11-06T12:16:12.843Z,12
2022-11-06T12:17:12.862Z,12.4
2022-11-06T12:18:13.108Z,12.7
2022-11-06T12:19:14.033Z,12.8
2022-11-06T12:20:13.123Z,13
2022-11-06T12:21:13.065Z,13.1
2022-11-06T12:22:13.119Z,13.1
2022-11-06T12:23:13.175Z,13.2
2022-11-06T12:24:13.294Z,13.5
2022-11-06T12:25:13.338Z,13
2022-11-06T12:26:13.365Z,12.5
2022-11-06T12:27:13.447Z,12.3
2022-11-06T12:28:13.778Z,12.4
2022-11-06T12:29:13.559Z,12.2
2022-11-06T12:30:13.629Z,12.1
2022-11-06T12:31:13.658Z,12.1
2022-11-06T12:32:13.708Z,11.6
2022-11-06T12:33:13.752Z,11.5
2022-11-06T12:34:17.381Z,11.3
2022-11-06T12:35:13.879Z,11.3
2022-11-06T12:36:13.926Z,11.3
2022-11-06T12:37:13.959Z,11.2
2022-11-06T12:38:14.159Z,11.2
2022-11-06T12:39:14.055Z,11
2022-11-06T12:40:14.415Z,11.1
2022-11-06T12:41:14.162Z,11.2
2022-11-06T12:42:14.261Z,11.1
2022-11-06T12:43:14.321Z,11.1
2022-11-06T12:44:14.357Z,11
2022-11-06T12:45:14.428Z,11
2022-11-06T12:46:14.453Z,11
2022-11-06T12:47:14.498Z,10.9
2022-11-06T12:48:14.858Z,10.9
2022-11-06T12:49:14.603Z,10.9
2022-11-06T12:50:14.695Z,11
2022-11-06T12:51:14.689Z,11.1
2022-11-06T12:52:14.773Z,11.1
2022-11-06T12:53:14.819Z,11
2022-11-06T12:54:15.955Z,11
2022-11-06T12:55:14.962Z,11
2022-11-06T12:56:15.019Z,11.1
2022-11-06T12:57:15.058Z,11.1
2022-11-06T12:58:15.495Z,11.1
2022-11-06T12:59:15.172Z,11
2022-11-06T13:00:15.229Z,10.9
2022-11-06T13:01:15.316Z,11
2022-11-06T13:02:15.363Z,11
2022-11-06T13:03:15.392Z,11
2022-11-06T13:04:15.426Z,11.1
2022-11-06T13:05:15.455Z,11.1
2022-11-06T13:06:15.515Z,11.1
2022-11-06T13:07:15.597Z,11
2022-11-06T13:08:15.978Z,11
2022-11-06T13:09:15.707Z,11
2022-11-06T13:10:15.820Z,11
2022-11-06T13:11:15.780Z,11
2022-11-06T13:12:15.875Z,11.1
2022-11-06T13:13:15.908Z,11.2
2022-11-06T13:14:15.933Z,11.4
2022-11-06T13:15:16.031Z,11.5
2022-11-06T13:16:16.079Z,11.6
2022-11-06T13:17:16.119Z,11.6
2022-11-06T13:18:21.977Z,11.5
2022-11-06T13:19:16.291Z,11.5
2022-11-06T13:20:16.333Z,11.4
2022-11-06T13:21:16.359Z,11.3
2022-11-06T13:22:16.484Z,11.3
2022-11-06T13:23:16.461Z,11.3
2022-11-06T13:24:16.587Z,11.2
2022-11-06T13:25:16.601Z,11.1
2022-11-06T13:26:16.648Z,11.1
2022-11-06T13:27:16.689Z,11.1
2022-11-06T13:28:16.969Z,11
2022-11-06T13:29:16.788Z,11
2022-11-06T13:30:16.870Z,11
2022-11-06T13:31:16.885Z,11
2022-11-06T13:32:16.948Z,11
2022-11-06T13:33:17.013Z,11
2022-11-06T13:34:17.077Z,10.9
2022-11-06T13:35:17.144Z,10.9
2022-11-06T13:36:17.145Z,10.9
2022-11-06T13:37:17.225Z,10.9
2022-11-06T13:38:17.440Z,10.8
2022-11-06T13:39:17.345Z,10.8
2022-11-06T13:40:17.421Z,10.8
2022-11-06T13:41:17.425Z,10.8
2022-11-06T13:42:17.502Z,10.8
2022-11-06T13:43:17.529Z,10.8
2022-11-06T13:44:17.713Z,10.8
2022-11-06T13:45:17.636Z,10.8
2022-11-06T13:46:17.724Z,10.8
2022-11-06T13:47:17.761Z,10.8
2022-11-06T13:48:17.849Z,10.8
2022-11-06T13:49:17.908Z,10.8